Time;durP1;ratioP1;P1;durP2;ratioP2;P2;SDS_P1;SDS_P2;PMS_P1;PMS_P2;Temp;Humidity;BMP_temperature;BMP_pressure;BME280_temperature;BME280_humidity;BME280_pressure;Samples;Min_cycle;Max_cycle;Signal;HPM_P1;HPM_P2
2021/04/28 00:01:54;;;;;;;11.82;3.70;;;11.20;78.80;;;;;;5053045;28;20274;-79
2021/04/28 00:04:19;;;;;;;3.90;3.40;;;11.10;78.70;;;;;;5058004;28;20199;-79
2021/04/28 00:06:45;;;;;;;16.90;3.72;;;11.00;79.00;;;;;;5073913;28;20171;-79
2021/04/28 00:09:12;;;;;;;6.18;3.45;;;11.00;79.30;;;;;;5074192;28;20175;-79
2021/04/28 00:11:38;;;;;;;7.10;3.58;;;10.90;79.00;;;;;;5074118;28;20302;-80
2021/04/28 00:14:05;;;;;;;7.90;3.25;;;10.90;80.00;;;;;;5074546;28;20619;-80
2021/04/28 00:16:32;;;;;;;5.22;3.50;;;10.80;80.00;;;;;;5075269;28;20635;-80
2021/04/28 00:18:57;;;;;;;4.43;3.25;;;10.90;80.00;;;;;;5074401;28;20676;-80
2021/04/28 00:21:23;;;;;;;9.70;3.58;;;10.80;79.70;;;;;;5074477;28;20257;-80
2021/04/28 00:23:49;;;;;;;9.45;3.70;;;10.80;80.00;;;;;;5074282;28;20256;-80
2021/04/28 00:26:16;;;;;;;6.03;3.92;;;10.80;80.40;;;;;;5074144;28;20171;-80
2021/04/28 00:28:43;;;;;;;3.92;2.88;;;10.70;80.30;;;;;;5075550;28;20175;-80
2021/04/28 00:31:08;;;;;;;8.90;3.35;;;10.70;80.70;;;;;;5057678;28;20515;-80
2021/04/28 00:33:35;;;;;;;7.72;3.42;;;10.60;80.70;;;;;;5074798;28;20178;-80
2021/04/28 00:36:00;;;;;;;6.03;3.25;;;10.60;81.20;;;;;;5073943;28;20175;-80
2021/04/28 00:38:26;;;;;;;10.60;3.28;;;10.60;81.60;;;;;;5075323;28;20611;-80
2021/04/28 00:40:53;;;;;;;10.98;3.65;;;10.50;81.50;;;;;;5073899;28;20175;-80
2021/04/28 00:43:19;;;;;;;5.25;3.78;;;10.50;81.60;;;;;;5073786;28;20194;-80
2021/04/28 00:45:45;;;;;;;4.30;3.50;;;10.50;81.40;;;;;;5073716;28;20537;-79
2021/04/28 00:48:12;;;;;;;4.72;3.78;;;10.50;81.40;;;;;;5074953;28;20224;-80
2021/04/28 00:50:44;;;;;;;4.18;3.65;;;10.40;81.90;;;;;;5074782;28;20158;-80
2021/04/28 00:53:14;;;;;;;7.90;4.22;;;10.40;82.20;;;;;;5074954;28;20159;-80
2021/04/28 00:55:40;;;;;;;8.85;3.95;;;10.40;82.20;;;;;;5075038;28;20166;-80
2021/04/28 00:58:06;;;;;;;4.57;3.58;;;10.40;82.40;;;;;;5073706;28;20174;-80
2021/04/28 01:00:33;;;;;;;8.13;3.80;;;10.30;82.40;;;;;;5073628;28;20526;-80
2021/04/28 01:02:59;;;;;;;4.47;3.85;;;10.30;82.70;;;;;;5073267;28;20206;-79
2021/04/28 01:05:25;;;;;;;7.68;4.40;;;10.20;82.90;;;;;;5073544;28;20194;-80
2021/04/28 01:07:51;;;;;;;5.20;3.67;;;10.20;83.00;;;;;;5073735;28;20607;-80
2021/04/28 01:10:26;;;;;;;14.55;3.80;;;10.20;82.90;;;;;;5076962;28;20173;-80
2021/04/28 01:12:52;;;;;;;6.15;4.35;;;10.20;83.30;;;;;;5080017;28;20660;-80
2021/04/28 01:15:22;;;;;;;17.70;3.90;;;10.20;82.90;;;;;;5080626;28;20170;-80
2021/04/28 01:17:48;;;;;;;3.90;3.53;;;10.20;83.40;;;;;;5081595;28;20163;-80
2021/04/28 01:20:16;;;;;;;6.70;3.85;;;10.30;83.30;;;;;;5074847;28;20244;-80
2021/04/28 01:22:44;;;;;;;6.63;4.30;;;10.30;83.10;;;;;;5073093;28;20221;-80
2021/04/28 01:25:14;;;;;;;9.15;3.83;;;10.30;82.90;;;;;;5074736;28;20166;-80
2021/04/28 01:27:44;;;;;;;6.68;3.90;;;10.30;83.60;;;;;;5073426;28;20257;-80
2021/04/28 01:30:12;;;;;;;10.13;4.28;;;10.40;83.40;;;;;;5074349;28;20170;-80
2021/04/28 01:32:43;;;;;;;8.38;3.50;;;10.30;83.60;;;;;;5072805;28;20174;-80
2021/04/28 01:35:10;;;;;;;12.20;3.25;;;10.40;84.40;;;;;;5073971;28;20216;-80
2021/04/28 01:37:36;;;;;;;11.27;3.88;;;10.40;83.40;;;;;;5073954;28;20174;-80
2021/04/28 01:40:03;;;;;;;8.68;4.35;;;10.60;83.70;;;;;;5056313;28;20171;-80
2021/04/28 01:42:30;;;;;;;5.43;3.55;;;10.70;82.50;;;;;;5073464;28;20173;-80
2021/04/28 01:44:57;;;;;;;5.53;3.92;;;10.70;82.80;;;;;;5072817;28;20175;-80
2021/04/28 01:47:23;;;;;;;12.45;4.00;;;10.70;83.20;;;;;;5074054;28;20251;-80
2021/04/28 01:49:50;;;;;;;6.95;3.40;;;10.70;82.80;;;;;;5072660;28;20163;-80
2021/04/28 01:52:17;;;;;;;7.63;3.75;;;10.70;83.20;;;;;;5073832;28;20301;-80
2021/04/28 01:54:45;;;;;;;5.65;3.78;;;10.80;82.60;;;;;;5072695;28;20427;-81
2021/04/28 01:57:11;;;;;;;4.40;3.65;;;10.60;82.30;;;;;;5073933;28;20245;-80
2021/04/28 01:59:39;;;;;;;8.80;4.43;;;10.50;82.70;;;;;;5072582;28;20325;-80
2021/04/28 02:02:09;;;;;;;5.28;3.70;;;10.40;83.20;;;;;;5073546;28;20191;-79
2021/04/28 02:04:36;;;;;;;5.97;3.50;;;10.30;83.80;;;;;;5073545;28;20198;-81
2021/04/28 02:07:03;;;;;;;4.72;4.18;;;10.20;83.90;;;;;;5072576;28;20174;-80
2021/04/28 02:09:29;;;;;;;7.25;3.88;;;10.10;84.30;;;;;;5055972;28;20170;-80
2021/04/28 02:11:55;;;;;;;12.02;4.05;;;10.00;84.70;;;;;;5073375;28;20254;-80
2021/04/28 02:14:21;;;;;;;3.85;3.45;;;9.90;85.00;;;;;;5072418;28;20244;-80
2021/04/28 02:16:49;;;;;;;5.78;3.72;;;9.80;85.20;;;;;;5072295;28;20265;-80
2021/04/28 02:19:17;;;;;;;4.55;3.53;;;9.70;85.70;;;;;;5072311;28;20171;-80
2021/04/28 02:21:50;;;;;;;7.53;3.95;;;9.60;86.70;;;;;;5072196;28;20202;-80
2021/04/28 02:24:17;;;;;;;8.25;3.80;;;9.60;86.60;;;;;;5073294;28;20681;-80
2021/04/28 02:26:44;;;;;;;5.07;4.10;;;9.60;87.00;;;;;;5073489;28;20174;-80
2021/04/28 02:29:11;;;;;;;6.03;3.40;;;9.50;87.10;;;;;;5073306;28;20171;-80
2021/04/28 02:31:38;;;;;;;9.75;3.95;;;9.50;86.80;;;;;;5071987;28;20167;-80
2021/04/28 02:34:05;;;;;;;4.68;3.60;;;9.50;87.20;;;;;;5072897;28;20183;-80
2021/04/28 02:36:34;;;;;;;7.55;4.70;;;9.40;86.90;;;;;;5073513;28;20174;-80
2021/04/28 02:39:08;;;;;;;4.45;4.00;;;9.40;86.70;;;;;;5073992;28;20530;-80
2021/04/28 02:41:42;;;;;;;10.82;4.13;;;9.40;87.00;;;;;;5075962;28;20525;-80
2021/04/28 02:44:11;;;;;;;7.47;3.72;;;9.40;87.20;;;;;;5077176;28;20554;-80
2021/04/28 02:46:38;;;;;;;13.50;4.18;;;9.40;87.20;;;;;;5076025;28;20175;-80
2021/04/28 02:49:05;;;;;;;7.88;3.95;;;9.40;87.90;;;;;;5076337;28;20181;-80
2021/04/28 02:51:32;;;;;;;6.97;4.38;;;9.40;87.90;;;;;;5059660;28;20179;-80
2021/04/28 02:54:01;;;;;;;3.85;3.55;;;9.40;87.40;;;;;;5076219;28;20185;-80
2021/04/28 02:56:30;;;;;;;5.78;3.67;;;9.50;86.90;;;;;;5075877;28;20163;-80
2021/04/28 02:58:56;;;;;;;5.30;4.05;;;9.50;87.20;;;;;;5077081;28;20166;-80
2021/04/28 03:01:23;;;;;;;8.98;4.50;;;9.60;86.90;;;;;;5077286;28;20173;-80
2021/04/28 03:03:51;;;;;;;6.28;4.30;;;9.60;86.90;;;;;;5055138;28;20631;-80
2021/04/28 03:06:17;;;;;;;4.35;3.95;;;9.60;86.80;;;;;;5056901;28;20168;-80
2021/04/28 03:08:44;;;;;;;4.95;3.75;;;9.70;87.10;;;;;;5056868;28;20273;-80
2021/04/28 03:11:11;;;;;;;10.52;5.03;;;9.70;86.70;;;;;;5058934;28;20650;-80
2021/04/28 03:13:37;;;;;;;4.55;3.78;;;9.80;86.90;;;;;;5076569;28;20202;-80
2021/04/28 03:16:02;;;;;;;9.85;4.05;;;9.80;86.90;;;;;;5075623;28;20650;-80
2021/04/28 03:18:28;;;;;;;5.20;3.88;;;9.60;87.10;;;;;;5076676;28;20301;-79
2021/04/28 03:20:54;;;;;;;9.77;3.90;;;9.50;87.50;;;;;;5076862;28;20167;-80
2021/04/28 03:23:21;;;;;;;4.53;4.05;;;9.30;88.10;;;;;;5076692;28;20191;-80
2021/04/28 03:25:46;;;;;;;7.57;3.72;;;9.20;88.50;;;;;;5075452;28;20562;-80
2021/04/28 03:28:12;;;;;;;5.55;4.28;;;9.10;88.80;;;;;;5076549;28;20170;-80
2021/04/28 03:30:38;;;;;;;14.30;4.40;;;9.10;89.00;;;;;;5075400;28;20182;-80
2021/04/28 03:33:04;;;;;;;4.80;3.63;;;9.20;88.80;;;;;;5076507;28;20181;-80
2021/04/28 03:35:30;;;;;;;7.82;3.67;;;9.20;89.60;;;;;;5076271;28;20500;-80
2021/04/28 03:37:56;;;;;;;10.07;5.68;;;9.30;88.40;;;;;;5075217;28;20559;-80
2021/04/28 03:40:22;;;;;;;5.53;4.22;;;9.40;88.10;;;;;;5076105;28;20167;-80
2021/04/28 03:42:47;;;;;;;5.20;3.72;;;9.50;88.10;;;;;;5075179;28;20190;-80
2021/04/28 03:45:13;;;;;;;4.78;4.15;;;9.40;88.10;;;;;;5076598;28;20170;-80
2021/04/28 03:47:39;;;;;;;5.55;5.00;;;9.50;88.60;;;;;;5076325;28;20163;-80
2021/04/28 03:50:05;;;;;;;7.85;4.40;;;9.60;89.40;;;;;;5075492;28;20186;-80
2021/04/28 03:52:31;;;;;;;5.78;4.15;;;9.60;90.80;;;;;;5075979;28;20167;-80
2021/04/28 03:54:58;;;;;;;5.40;4.18;;;9.60;89.80;;;;;;5075739;28;20634;-80
2021/04/28 03:57:24;;;;;;;4.63;4.22;;;9.60;90.20;;;;;;5076106;28;20166;-80
2021/04/28 03:59:50;;;;;;;5.97;4.47;;;9.60;90.40;;;;;;5074560;28;20171;-80
2021/04/28 04:02:15;;;;;;;8.73;3.90;;;9.60;90.00;;;;;;5075596;28;20213;-80
2021/04/28 04:04:41;;;;;;;7.07;3.90;;;9.50;89.80;;;;;;5074346;28;20551;-80
2021/04/28 04:07:08;;;;;;;6.18;3.95;;;9.20;90.90;;;;;;5071423;28;20187;-80
2021/04/28 04:09:33;;;;;;;15.60;5.53;;;9.00;90.80;;;;;;5067867;28;20181;-80
2021/04/28 04:11:59;;;;;;;6.38;3.97;;;9.00;91.30;;;;;;5074649;28;20174;-80
2021/04/28 04:14:25;;;;;;;4.47;4.07;;;9.10;91.30;;;;;;5075921;28;20171;-80
2021/04/28 04:16:50;;;;;;;6.30;5.03;;;9.10;90.90;;;;;;5074232;28;20174;-80
2021/04/28 04:19:16;;;;;;;9.95;4.72;;;9.00;90.70;;;;;;5074239;28;20266;-80
2021/04/28 04:21:42;;;;;;;8.02;4.50;;;8.80;90.90;;;;;;5074166;28;20175;-80
2021/04/28 04:24:08;;;;;;;11.77;4.28;;;8.70;91.30;;;;;;5074288;28;20198;-80
2021/04/28 04:26:34;;;;;;;6.78;4.28;;;8.60;91.40;;;;;;5074335;28;20261;-81
2021/04/28 04:29:00;;;;;;;13.07;4.28;;;8.60;91.70;;;;;;5075655;28;20678;-80
2021/04/28 04:31:26;;;;;;;14.85;5.15;;;8.70;91.60;;;;;;5074170;28;20182;-80
2021/04/28 04:33:52;;;;;;;7.50;5.15;;;8.90;91.70;;;;;;5073596;28;20182;-80
2021/04/28 04:36:17;;;;;;;4.85;4.30;;;9.00;91.50;;;;;;5074976;28;20167;-80
2021/04/28 04:38:43;;;;;;;9.57;5.53;;;9.20;91.80;;;;;;5073944;28;20183;-80
2021/04/28 04:41:09;;;;;;;9.10;4.93;;;9.30;91.80;;;;;;5075137;28;20183;-80
2021/04/28 04:43:34;;;;;;;6.82;4.45;;;9.30;91.70;;;;;;5073706;28;20662;-80
2021/04/28 04:46:00;;;;;;;12.80;4.88;;;9.10;91.20;;;;;;5073942;28;20220;-80
2021/04/28 04:48:26;;;;;;;7.68;4.43;;;9.00;92.10;;;;;;5075203;28;20715;-80
2021/04/28 04:50:51;;;;;;;10.52;5.50;;;8.80;91.50;;;;;;5073677;28;20175;-80
2021/04/28 04:53:17;;;;;;;7.63;5.00;;;8.80;91.70;;;;;;5075007;28;20179;-80
2021/04/28 04:55:42;;;;;;;7.97;4.85;;;8.60;91.70;;;;;;5075446;28;20198;-79
2021/04/28 04:58:08;;;;;;;7.50;5.25;;;8.70;92.10;;;;;;5073709;28;20166;-80
2021/04/28 05:00:34;;;;;;;14.18;5.25;;;8.70;92.10;;;;;;5053474;28;20171;-80
2021/04/28 05:02:59;;;;;;;10.93;5.35;;;8.80;92.20;;;;;;5058357;28;20206;-80
2021/04/28 05:05:25;;;;;;;9.65;5.05;;;8.90;91.80;;;;;;5074399;28;20651;-80
2021/04/28 05:07:52;;;;;;;12.45;5.70;;;9.10;91.90;;;;;;5074779;28;20163;-80
2021/04/28 05:10:18;;;;;;;10.00;5.30;;;9.30;91.40;;;;;;5074651;28;20190;-80
2021/04/28 05:12:46;;;;;;;13.65;6.03;;;9.40;91.50;;;;;;5073327;28;20631;-80
2021/04/28 05:15:14;;;;;;;12.25;5.32;;;9.50;91.60;;;;;;5074617;28;20162;-80
2021/04/28 05:17:40;;;;;;;18.25;5.05;;;9.80;91.10;;;;;;5073038;28;20178;-80
2021/04/28 05:20:06;;;;;;;11.55;5.88;;;10.20;90.70;;;;;;5074618;28;20171;-80
2021/04/28 05:22:32;;;;;;;9.15;5.55;;;10.60;90.80;;;;;;5073102;28;20221;-80
2021/04/28 05:24:58;;;;;;;7.95;5.57;;;11.00;89.50;;;;;;5074279;28;20202;-80
2021/04/28 05:27:26;;;;;;;8.10;6.00;;;11.30;88.90;;;;;;5073233;28;20651;-80
2021/04/28 05:29:53;;;;;;;14.80;5.53;;;11.70;88.20;;;;;;5073112;28;20211;-80
2021/04/28 05:32:19;;;;;;;11.57;6.32;;;11.90;85.60;;;;;;5072489;28;20179;-80
2021/04/28 05:34:44;;;;;;;14.02;5.53;;;11.90;86.60;;;;;;5072979;28;20182;-80
2021/04/28 05:37:13;;;;;;;16.95;5.70;;;11.90;84.50;;;;;;5072768;28;20171;-80
2021/04/28 05:39:42;;;;;;;13.02;5.97;;;12.20;85.30;;;;;;5072589;28;20186;-80
2021/04/28 05:42:07;;;;;;;26.05;6.72;;;12.50;83.90;;;;;;5072849;28;20167;-80
2021/04/28 05:44:33;;;;;;;12.63;5.40;;;12.30;83.80;;;;;;5073949;28;20202;-80
2021/04/28 05:47:00;;;;;;;12.43;5.70;;;11.60;85.00;;;;;;5072464;28;20230;-80
2021/04/28 05:49:26;;;;;;;13.98;6.03;;;11.30;87.00;;;;;;5073866;28;20163;-80
2021/04/28 05:51:51;;;;;;;13.60;6.30;;;11.60;87.10;;;;;;5072574;28;20174;-80
2021/04/28 05:54:17;;;;;;;15.43;5.82;;;12.00;85.60;;;;;;5072728;28;20257;-80
2021/04/28 05:56:43;;;;;;;13.45;5.13;;;12.20;85.70;;;;;;5073542;28;20267;-80
2021/04/28 05:59:09;;;;;;;13.85;6.22;;;12.00;85.80;;;;;;5073556;28;20171;-80
2021/04/28 06:01:34;;;;;;;10.95;5.97;;;12.10;86.00;;;;;;5073511;28;20163;-80
2021/04/28 06:04:00;;;;;;;12.82;5.68;;;12.80;83.00;;;;;;5073020;28;20202;-80
2021/04/28 06:06:26;;;;;;;18.73;6.00;;;13.50;82.00;;;;;;5072249;28;20191;-80
2021/04/28 06:08:52;;;;;;;17.33;6.05;;;13.70;80.70;;;;;;5072104;28;20220;-80
2021/04/28 06:11:18;;;;;;;12.85;5.90;;;13.40;80.80;;;;;;5073768;28;20174;-81
2021/04/28 06:13:46;;;;;;;11.27;6.00;;;12.60;82.10;;;;;;5072180;28;20193;-80
2021/04/28 06:16:11;;;;;;;9.98;7.05;;;12.10;83.90;;;;;;5072192;28;20166;-80
2021/04/28 06:18:37;;;;;;;13.40;5.50;;;12.10;84.80;;;;;;5072205;28;20261;-80
2021/04/28 06:21:04;;;;;;;10.93;6.43;;;12.00;84.60;;;;;;5055439;28;20182;-80
2021/04/28 06:23:30;;;;;;;21.38;6.57;;;12.10;85.80;;;;;;5073162;28;20550;-81
2021/04/28 06:25:56;;;;;;;6.68;5.97;;;12.50;85.40;;;;;;5072425;28;20186;-81
2021/04/28 06:28:21;;;;;;;23.48;7.15;;;12.50;82.90;;;;;;5073315;28;20178;-80
2021/04/28 06:30:47;;;;;;;21.30;7.03;;;12.70;83.90;;;;;;5071994;28;20170;-80
2021/04/28 06:33:12;;;;;;;18.23;6.00;;;13.20;83.30;;;;;;5051770;28;20191;-80
2021/04/28 06:35:38;;;;;;;22.80;6.43;;;13.60;81.60;;;;;;5068728;28;20586;-80
2021/04/28 06:38:04;;;;;;;21.30;6.72;;;15.60;78.70;;;;;;5085750;28;20167;-80
2021/04/28 06:40:29;;;;;;;14.50;6.10;;;17.20;74.00;;;;;;5073204;28;20202;-81
2021/04/28 06:42:55;;;;;;;13.23;6.15;;;17.50;71.50;;;;;;5071895;28;20247;-81
2021/04/28 06:45:21;;;;;;;12.63;5.78;;;18.80;68.60;;;;;;5072106;28;20178;-80
2021/04/28 06:47:46;;;;;;;21.40;6.43;;;17.80;68.90;;;;;;5072893;28;20564;-80
2021/04/28 06:50:12;;;;;;;11.30;5.90;;;19.00;68.50;;;;;;5073362;28;20240;-79
2021/04/28 06:52:42;;;;;;;9.73;6.43;;;19.70;65.60;;;;;;5073291;28;20174;-79
2021/04/28 06:55:09;;;;;;;15.68;6.80;;;20.80;65.20;;;;;;5073407;28;20173;-79
2021/04/28 06:57:35;;;;;;;11.32;6.35;;;21.90;63.20;;;;;;5072975;28;20204;-80
2021/04/28 07:00:00;;;;;;;11.73;5.85;;;22.60;60.30;;;;;;5055219;28;20175;-79
2021/04/28 07:02:26;;;;;;;13.13;6.00;;;21.30;60.30;;;;;;5072779;28;20554;-80
2021/04/28 07:04:51;;;;;;;10.55;6.65;;;22.00;60.60;;;;;;5073455;28;20281;-80
2021/04/28 07:07:17;;;;;;;17.75;6.43;;;22.60;59.30;;;;;;5055281;28;20235;-80
2021/04/28 07:09:43;;;;;;;18.30;6.93;;;21.40;60.30;;;;;;5072494;28;20183;-80
2021/04/28 07:12:08;;;;;;;27.48;6.70;;;21.20;61.60;;;;;;5071532;28;20207;-80
2021/04/28 07:14:34;;;;;;;15.18;6.47;;;20.00;62.50;;;;;;5072906;28;20657;-79
2021/04/28 07:17:00;;;;;;;20.55;7.18;;;20.70;63.10;;;;;;5073135;28;20170;-80
2021/04/28 07:19:25;;;;;;;13.55;6.40;;;21.80;60.60;;;;;;5071936;28;20178;-80
2021/04/28 07:21:51;;;;;;;11.50;6.20;;;24.00;58.20;;;;;;5071425;28;20178;-81
2021/04/28 07:24:16;;;;;;;17.05;6.57;;;24.50;56.90;;;;;;5072643;28;20191;-80
2021/04/28 07:26:42;;;;;;;17.60;5.80;;;23.60;56.70;;;;;;5076058;28;20256;-80
2021/04/28 07:29:08;;;;;;;22.77;7.40;;;23.90;57.70;;;;;;5075353;28;20225;-80
2021/04/28 07:31:33;;;;;;;14.70;6.78;;;24.70;57.50;;;;;;5075010;28;20182;-81
2021/04/28 07:33:59;;;;;;;20.23;6.75;;;23.60;56.40;;;;;;5076350;28;20205;-81
2021/04/28 07:36:25;;;;;;;12.45;6.05;;;23.60;58.70;;;;;;5076457;28;20167;-81
2021/04/28 07:38:50;;;;;;;33.13;7.25;;;25.00;56.00;;;;;;5081377;28;20252;-80
2021/04/28 07:41:16;;;;;;;15.20;7.07;;;25.00;56.10;;;;;;5089942;28;20174;-80
2021/04/28 07:43:42;;;;;;;11.68;6.63;;;24.60;56.00;;;;;;5076301;28;20191;-80
2021/04/28 07:46:07;;;;;;;13.52;6.45;;;24.10;57.40;;;;;;5075069;28;20182;-81
2021/04/28 07:48:33;;;;;;;8.93;6.68;;;25.20;57.80;;;;;;5076014;28;20186;-81
2021/04/28 07:51:00;;;;;;;10.82;6.28;;;26.00;55.60;;;;;;5074725;28;20584;-81
2021/04/28 07:53:27;;;;;;;23.90;7.93;;;25.50;57.20;;;;;;5075874;28;20178;-81
2021/04/28 07:55:53;;;;;;;16.20;6.70;;;24.60;56.70;;;;;;5075837;28;20543;-82
2021/04/28 07:58:19;;;;;;;11.65;6.43;;;25.00;56.50;;;;;;5074655;28;20174;-82
2021/04/28 08:00:44;;;;;;;12.27;6.40;;;24.00;56.50;;;;;;5074766;28;20605;-80
2021/04/28 08:03:10;;;;;;;8.38;7.00;;;22.70;58.90;;;;;;5075073;28;20210;-80
2021/04/28 08:05:37;;;;;;;12.15;6.72;;;21.90;59.50;;;;;;5074499;28;20636;-80
2021/04/28 08:08:04;;;;;;;16.13;7.60;;;21.30;61.30;;;;;;5075460;28;20175;-79
2021/04/28 08:10:30;;;;;;;18.45;7.22;;;21.80;60.80;;;;;;5075890;28;20174;-79
2021/04/28 08:12:55;;;;;;;21.77;6.93;;;22.20;61.30;;;;;;5075469;28;20166;-82
2021/04/28 08:15:21;;;;;;;21.33;7.78;;;23.00;60.40;;;;;;5074464;28;20174;-81
2021/04/28 08:17:47;;;;;;;21.83;7.47;;;24.30;59.10;;;;;;5074075;28;20195;-81
2021/04/28 08:20:13;;;;;;;20.90;7.53;;;25.20;57.20;;;;;;5074515;28;20236;-81
2021/04/28 08:22:39;;;;;;;13.45;6.60;;;25.70;56.00;;;;;;5075363;28;20186;-81
2021/04/28 08:25:08;;;;;;;21.80;6.97;;;25.70;56.60;;;;;;5075417;28;20198;-82
2021/04/28 08:27:33;;;;;;;14.25;7.68;;;26.20;55.70;;;;;;5074183;28;20236;-83
2021/04/28 08:29:59;;;;;;;13.35;7.18;;;26.20;56.40;;;;;;5078011;28;20173;-81
2021/04/28 08:32:25;;;;;;;15.32;6.50;;;26.10;56.20;;;;;;5083591;28;20170;-90
2021/04/28 08:34:52;;;;;;;13.38;7.93;;;26.00;57.70;;;;;;5057438;28;20194;-80
2021/04/28 08:37:18;;;;;;;20.80;7.63;;;25.30;56.60;;;;;;5075075;28;20171;-80
2021/04/28 08:39:44;;;;;;;20.10;7.25;;;24.50;57.90;;;;;;5075059;28;20679;-80
2021/04/28 08:42:10;;;;;;;11.93;7.80;;;24.00;58.30;;;;;;5074038;28;20159;-80
2021/04/28 08:44:36;;;;;;;10.20;7.30;;;23.50;59.60;;;;;;5074746;28;20186;-79
2021/04/28 08:47:03;;;;;;;25.70;8.50;;;23.30;60.50;;;;;;5074896;28;20526;-81
2021/04/28 08:49:28;;;;;;;10.93;7.95;;;23.60;59.70;;;;;;5073503;28;20167;-81
2021/04/28 08:51:55;;;;;;;15.90;8.20;;;23.50;60.00;;;;;;5073859;28;20261;-80
2021/04/28 08:54:22;;;;;;;18.90;7.53;;;24.50;58.90;;;;;;5075055;28;20214;-81
2021/04/28 08:56:53;;;;;;;17.58;7.35;;;26.90;57.60;;;;;;5074239;28;20154;-80
2021/04/28 08:59:19;;;;;;;12.60;7.82;;;26.70;53.60;;;;;;5074814;28;20159;-80
2021/04/28 09:01:48;;;;;;;12.40;7.65;;;24.20;56.60;;;;;;5074187;28;20618;-79
2021/04/28 09:04:16;;;;;;;26.40;8.95;;;25.80;57.20;;;;;;5074199;28;20186;-80
2021/04/28 09:06:43;;;;;;;15.30;7.57;;;25.40;55.50;;;;;;5073311;28;20209;-80
2021/04/28 09:09:13;;;;;;;12.90;7.80;;;27.70;55.00;;;;;;5074480;28;20569;-81
2021/04/28 09:11:51;;;;;;;15.90;7.65;;;30.20;51.80;;;;;;5074403;28;20147;-80
2021/04/28 09:14:28;;;;;;;12.50;7.85;;;30.60;51.40;;;;;;5073196;28;20166;-81
2021/04/28 09:16:54;;;;;;;11.23;8.05;;;29.10;52.80;;;;;;5070548;28;20170;-81
2021/04/28 09:19:42;;;;;;;26.55;8.15;;;29.20;52.90;;;;;;5074269;28;20228;-81
2021/04/28 09:22:15;;;;;;;18.88;7.68;;;30.30;53.40;;;;;;5073049;28;20202;-81
2021/04/28 09:24:54;;;;;;;17.45;7.85;;;32.00;49.70;;;;;;5074864;28;20230;-82
2021/04/28 09:27:27;;;;;;;7.35;6.57;;;31.80;47.90;;;;;;5066263;28;20606;-80
2021/04/28 09:29:53;;;;;;;13.30;7.40;;;32.80;48.70;;;;;;5072388;28;20202;-80
2021/04/28 09:32:28;;;;;;;17.42;7.22;;;33.10;49.20;;;;;;5073949;28;20268;-81
2021/04/28 09:34:54;;;;;;;15.07;7.53;;;34.80;46.90;;;;;;5086670;28;20178;-80
2021/04/28 09:37:20;;;;;;;15.00;7.00;;;35.80;46.50;;;;;;5057283;28;20174;-81
2021/04/28 09:39:48;;;;;;;13.82;6.97;;;36.70;46.10;;;;;;5072425;28;20166;-81
2021/04/28 09:42:17;;;;;;;11.75;6.60;;;37.70;45.60;;;;;;5072944;28;20504;-82
2021/04/28 09:44:49;;;;;;;14.00;6.78;;;36.80;43.40;;;;;;5072753;28;20247;-82
2021/04/28 09:47:25;;;;;;;9.52;7.22;;;37.10;43.20;;;;;;5073654;28;20151;-81
2021/04/28 09:49:52;;;;;;;15.00;6.93;;;35.90;44.60;;;;;;5052628;28;20190;-80
2021/04/28 09:52:23;;;;;;;24.20;7.22;;;37.30;44.60;;;;;;5014311;28;20194;-79
2021/04/28 09:54:51;;;;;;;10.45;7.38;;;37.00;44.00;;;;;;5031439;28;20184;-79
2021/04/28 09:57:32;;;;;;;11.65;6.95;;;37.50;44.30;;;;;;5031822;28;20180;-79
2021/04/28 09:59:57;;;;;;;13.93;6.97;;;37.40;43.30;;;;;;5014912;28;20164;-79
2021/04/28 10:02:28;;;;;;;9.65;6.88;;;34.20;43.50;;;;;;5011099;28;20210;-80
2021/04/28 10:05:19;;;;;;;12.75;7.22;;;35.30;45.90;;;;;;5030920;28;20203;-80
2021/04/28 10:07:46;;;;;;;8.98;7.28;;;35.30;43.60;;;;;;5031221;28;20230;-82
2021/04/28 10:10:13;;;;;;;12.05;7.57;;;35.90;44.00;;;;;;5014225;28;20168;-81
2021/04/28 10:12:39;;;;;;;23.27;7.88;;;35.90;43.60;;;;;;5047740;28;20531;-80
2021/04/28 10:15:06;;;;;;;15.30;7.47;;;36.60;44.30;;;;;;5014335;28;20168;-80
2021/04/28 10:17:35;;;;;;;20.88;7.90;;;34.60;44.30;;;;;;5014165;28;20183;-80
2021/04/28 10:20:01;;;;;;;14.73;8.93;;;33.10;45.90;;;;;;5047660;28;20179;-80
2021/04/28 10:22:28;;;;;;;8.98;8.13;;;31.40;45.00;;;;;;5034382;28;20174;-80
2021/04/28 10:24:54;;;;;;;14.07;8.50;;;31.00;46.10;;;;;;5051615;28;20194;-80
2021/04/28 10:27:21;;;;;;;16.88;7.97;;;32.20;47.30;;;;;;5051816;28;20175;-80
2021/04/28 10:29:48;;;;;;;20.35;9.38;;;32.30;46.30;;;;;;5051518;28;20163;-79
2021/04/28 10:32:16;;;;;;;17.75;8.57;;;33.60;45.50;;;;;;5051300;28;20257;-80
2021/04/28 10:34:53;;;;;;;10.95;8.93;;;30.20;46.30;;;;;;5053155;28;20590;-80
2021/04/28 10:37:21;;;;;;;12.75;8.68;;;30.90;47.30;;;;;;5051408;28;20254;-80
2021/04/28 10:39:49;;;;;;;9.88;8.88;;;31.30;47.00;;;;;;5052932;28;20156;-82
2021/04/28 10:42:31;;;;;;;9.13;8.23;;;30.60;47.50;;;;;;5052501;28;20478;-81
2021/04/28 10:44:57;;;;;;;17.10;8.77;;;30.00;48.60;;;;;;5053077;28;20191;-82
2021/04/28 10:47:26;;;;;;;9.95;8.18;;;32.90;46.80;;;;;;5052483;28;20190;-80
2021/04/28 10:50:00;;;;;;;14.45;9.15;;;33.40;46.90;;;;;;5053035;28;20163;-80
2021/04/28 10:52:28;;;;;;;12.63;8.88;;;32.60;44.80;;;;;;5069072;28;20165;-84
2021/04/28 10:54:53;;;;;;;12.20;8.85;;;32.20;47.70;;;;;;5071598;28;20269;-81
2021/04/28 10:57:38;;;;;;;11.77;8.43;;;27.90;49.70;;;;;;5073094;28;20300;-82
2021/04/28 11:00:25;;;;;;;16.13;8.65;;;29.90;49.30;;;;;;5072762;28;20239;-82
2021/04/28 11:02:51;;;;;;;10.63;9.52;;;32.50;48.20;;;;;;5076140;28;20308;-80
2021/04/28 11:05:28;;;;;;;9.70;8.48;;;33.80;45.60;;;;;;5075667;28;20650;-80
2021/04/28 11:07:58;;;;;;;11.82;9.30;;;34.80;45.80;;;;;;5075567;28;20177;-79
2021/04/28 11:10:29;;;;;;;11.98;8.77;;;34.10;45.10;;;;;;5076814;28;20162;-82
2021/04/28 11:13:08;;;;;;;16.23;9.43;;;36.10;46.50;;;;;;5075558;28;20564;-79
2021/04/28 11:15:53;;;;;;;10.93;9.35;;;37.90;44.00;;;;;;5076709;28;20162;-79
2021/04/28 11:18:33;;;;;;;13.20;8.75;;;37.90;43.50;;;;;;5074954;28;20237;-80
2021/04/28 11:21:17;;;;;;;13.48;9.57;;;37.30;42.80;;;;;;5076561;28;20169;-79
2021/04/28 11:24:14;;;;;;;11.20;10.13;;;37.30;43.10;;;;;;5074893;28;20277;-81
2021/04/28 11:26:44;;;;;;;12.38;10.02;;;35.30;42.70;;;;;;5076524;28;20158;-82
2021/04/28 11:29:10;;;;;;;10.88;9.50;;;34.80;46.70;;;;;;5071543;28;20174;-81
2021/04/28 11:31:40;;;;;;;17.02;9.50;;;36.20;43.60;;;;;;5075278;28;20163;-83
2021/04/28 11:34:24;;;;;;;16.90;9.75;;;37.00;44.80;;;;;;5075716;28;20166;-82
2021/04/28 11:36:55;;;;;;;12.20;10.68;;;36.70;43.90;;;;;;5077446;28;20607;-82
2021/04/28 11:39:40;;;;;;;12.15;10.25;;;37.10;43.90;;;;;;5076658;28;20216;-82
2021/04/28 11:42:18;;;;;;;13.70;9.40;;;38.00;43.80;;;;;;5075826;28;20157;-84
2021/04/28 11:44:51;;;;;;;20.92;10.73;;;38.50;45.70;;;;;;5076258;28;20185;-83
2021/04/28 11:47:24;;;;;;;11.20;9.98;;;38.00;43.60;;;;;;5074796;28;20205;-82
2021/04/28 11:49:52;;;;;;;23.45;10.95;;;37.60;43.70;;;;;;5075550;28;20220;-83
2021/04/28 11:52:20;;;;;;;20.05;11.30;;;36.50;44.50;;;;;;5074683;28;20162;-82
2021/04/28 11:54:52;;;;;;;18.98;11.30;;;36.60;44.60;;;;;;5074878;28;20189;-82
2021/04/28 11:57:27;;;;;;;12.55;10.55;;;37.40;44.40;;;;;;5075269;28;20208;-82
2021/04/28 12:00:05;;;;;;;13.45;10.75;;;38.20;43.60;;;;;;5075876;28;20162;-80
2021/04/28 12:02:31;;;;;;;19.33;10.25;;;38.00;42.90;;;;;;5074134;28;20173;-80
2021/04/28 12:04:56;;;;;;;15.73;10.40;;;37.70;44.70;;;;;;5074132;28;20531;-80
2021/04/28 12:07:22;;;;;;;13.13;11.10;;;37.60;45.00;;;;;;5074668;28;20171;-83
2021/04/28 12:09:52;;;;;;;23.92;11.15;;;36.80;44.40;;;;;;5057652;28;20499;-82
2021/04/28 12:12:31;;;;;;;15.70;10.80;;;36.80;44.50;;;;;;5075600;28;20205;-81
2021/04/28 12:15:06;;;;;;;14.55;11.73;;;35.50;44.90;;;;;;5074640;28;20184;-81
2021/04/28 12:17:44;;;;;;;14.57;10.93;;;35.20;45.00;;;;;;5076528;28;20189;-82
2021/04/28 12:20:16;;;;;;;24.83;11.73;;;34.40;45.70;;;;;;5075321;28;20162;-81
2021/04/28 12:22:41;;;;;;;15.85;12.27;;;34.80;45.50;;;;;;5075540;28;20253;-81
2021/04/28 12:25:09;;;;;;;17.90;12.50;;;33.60;46.30;;;;;;5076018;28;20262;-81
2021/04/28 12:27:43;;;;;;;16.90;12.63;;;31.30;47.60;;;;;;5074370;28;20228;-82
2021/04/28 12:30:23;;;;;;;18.35;12.90;;;29.80;49.60;;;;;;5075700;28;20178;-81
2021/04/28 12:32:57;;;;;;;13.40;12.15;;;28.40;50.60;;;;;;5075587;28;20189;-81
2021/04/28 12:35:41;;;;;;;27.23;12.90;;;27.40;52.80;;;;;;5075592;28;20237;-80
2021/04/28 12:38:14;;;;;;;21.85;14.63;;;26.50;53.90;;;;;;5075597;28;20147;-81
2021/04/28 12:40:54;;;;;;;24.30;13.80;;;26.00;52.30;;;;;;5075496;28;20205;-81
2021/04/28 12:43:21;;;;;;;17.65;15.07;;;25.90;53.70;;;;;;5075511;28;20189;-81
2021/04/28 12:45:47;;;;;;;18.48;14.98;;;25.10;55.00;;;;;;5075542;28;20171;-81
2021/04/28 12:48:18;;;;;;;17.23;13.15;;;24.80;54.50;;;;;;5074724;28;20177;-80